Time;durP1;ratioP1;P1;durP2;ratioP2;P2;SDS_P1;SDS_P2;PMS_P1;PMS_P2;Temp;Humidity;BMP_temperature;BMP_pressure;BME280_temperature;BME280_humidity;BME280_pressure;Samples;Min_cycle;Max_cycle;Signal;HPM_P1;HPM_P2
2021/06/05 00:02:17;;;;;;;29.17;22.88;;;20.30;99.90;;;;;;5012583;28;20648;-73
2021/06/05 00:04:43;;;;;;;28.58;23.35;;;20.40;99.90;;;;;;5017987;28;20101;-74
2021/06/05 00:07:09;;;;;;;35.80;24.83;;;20.30;99.90;;;;;;5021392;28;20025;-73
2021/06/05 00:09:34;;;;;;;31.75;23.73;;;20.10;99.90;;;;;;5013619;28;20061;-73
2021/06/05 00:12:00;;;;;;;32.80;25.00;;;20.10;99.90;;;;;;5013693;28;20076;-74
2021/06/05 00:14:26;;;;;;;33.30;25.95;;;20.20;99.90;;;;;;5016845;28;20433;-74
2021/06/05 00:16:52;;;;;;;35.70;27.58;;;20.20;99.90;;;;;;5021382;28;20010;-74
2021/06/05 00:19:19;;;;;;;33.70;26.67;;;20.20;99.90;;;;;;5015758;28;20459;-74
2021/06/05 00:21:46;;;;;;;35.35;25.45;;;20.20;99.90;;;;;;5014472;28;20569;-73
2021/06/05 00:24:17;;;;;;;32.85;27.52;;;20.20;99.90;;;;;;5018968;28;20018;-74
2021/06/05 00:26:43;;;;;;;33.80;27.35;;;20.20;99.90;;;;;;5017840;28;20390;-73
2021/06/05 00:29:08;;;;;;;33.58;26.92;;;20.20;99.90;;;;;;5013785;28;20030;-74
2021/06/05 00:31:34;;;;;;;28.88;24.55;;;20.20;99.90;;;;;;5017323;28;20470;-73
2021/06/05 00:34:00;;;;;;;31.75;25.77;;;20.20;99.90;;;;;;5015673;28;20435;-74
2021/06/05 00:36:26;;;;;;;31.58;25.17;;;20.20;99.90;;;;;;5015470;28;20477;-74
2021/06/05 00:38:54;;;;;;;31.08;24.88;;;20.20;99.90;;;;;;5015894;28;20056;-73
2021/06/05 00:41:21;;;;;;;28.77;23.55;;;20.20;99.90;;;;;;5010438;28;20037;-73
2021/06/05 00:43:50;;;;;;;34.80;25.35;;;20.20;99.90;;;;;;5014736;28;20033;-74
2021/06/05 00:46:18;;;;;;;30.80;24.73;;;20.20;99.90;;;;;;5017503;28;20034;-74
2021/06/05 00:48:44;;;;;;;39.28;27.10;;;20.10;99.90;;;;;;5014474;28;20661;-74
2021/06/05 00:51:10;;;;;;;31.90;24.33;;;20.10;99.90;;;;;;5014279;28;20108;-73
2021/06/05 00:53:37;;;;;;;31.48;24.80;;;20.10;99.90;;;;;;5017328;28;20025;-74
2021/06/05 00:56:08;;;;;;;26.90;23.17;;;20.20;99.90;;;;;;5013461;28;20021;-74
2021/06/05 00:58:33;;;;;;;30.15;24.88;;;20.10;99.90;;;;;;5015657;28;20026;-74
2021/06/05 01:01:13;;;;;;;36.63;26.08;;;20.10;99.90;;;;;;5012191;28;20499;-74
2021/06/05 01:03:39;;;;;;;32.45;23.75;;;20.10;99.90;;;;;;5022005;28;20037;-74
2021/06/05 01:06:21;;;;;;;27.80;23.80;;;20.10;99.90;;;;;;5018353;28;20025;-73
2021/06/05 01:09:16;;;;;;;34.03;25.38;;;20.10;99.90;;;;;;5021771;28;20030;-73
2021/06/05 01:12:07;;;;;;;32.25;23.92;;;20.10;99.90;;;;;;5015248;28;20033;-73
2021/06/05 01:14:44;;;;;;;34.85;26.58;;;20.10;99.90;;;;;;5017857;28;20061;-73
2021/06/05 01:17:18;;;;;;;40.85;28.17;;;20.10;99.90;;;;;;5023758;28;20425;-74
2021/06/05 01:20:06;;;;;;;33.63;27.23;;;20.10;99.90;;;;;;5014119;28;20458;-73
2021/06/05 01:22:54;;;;;;;37.78;27.77;;;20.10;99.90;;;;;;5011119;28;20037;-75
2021/06/05 01:26:00;;;;;;;35.38;25.73;;;20.10;99.90;;;;;;5019412;28;20387;-74
2021/06/05 01:28:31;;;;;;;40.58;27.48;;;20.10;99.90;;;;;;5015351;28;20025;-74
2021/06/05 01:31:01;;;;;;;38.22;26.70;;;20.10;99.90;;;;;;5017370;28;20014;-76
2021/06/05 01:33:29;;;;;;;25.92;22.00;;;20.10;99.90;;;;;;5010207;28;20026;-76
2021/06/05 01:35:55;;;;;;;29.98;21.55;;;20.10;99.90;;;;;;5014075;28;20014;-76
2021/06/05 01:38:23;;;;;;;26.25;21.00;;;20.10;99.90;;;;;;5019248;28;20375;-76
2021/06/05 01:40:50;;;;;;;30.08;23.70;;;20.10;99.90;;;;;;5016021;28;20049;-76
2021/06/05 01:43:21;;;;;;;31.20;23.88;;;20.00;99.90;;;;;;5015413;28;20043;-76
2021/06/05 01:45:47;;;;;;;33.50;25.75;;;20.10;99.90;;;;;;5011496;28;20029;-76
2021/06/05 01:48:15;;;;;;;35.50;27.30;;;20.00;99.90;;;;;;5017143;28;20026;-76
2021/06/05 01:50:43;;;;;;;34.05;27.02;;;20.00;99.90;;;;;;5016243;28;20033;-76
2021/06/05 01:53:23;;;;;;;44.13;31.20;;;20.00;99.90;;;;;;5017273;28;20030;-76
2021/06/05 01:56:07;;;;;;;37.92;26.77;;;20.00;99.90;;;;;;5018427;28;20025;-76
2021/06/05 01:58:34;;;;;;;60.92;33.78;;;20.00;99.90;;;;;;5018279;28;20025;-75
2021/06/05 02:01:01;;;;;;;56.40;35.22;;;20.00;99.90;;;;;;5022022;28;20386;-76
2021/06/05 02:03:28;;;;;;;53.50;36.00;;;20.00;99.90;;;;;;5018217;28;20401;-76
2021/06/05 02:05:54;;;;;;;62.95;40.38;;;20.00;99.90;;;;;;5017436;28;20033;-76
2021/06/05 02:08:23;;;;;;;68.93;42.78;;;20.00;99.90;;;;;;5022010;28;20051;-76
2021/06/05 02:10:51;;;;;;;86.57;47.55;;;20.00;99.90;;;;;;5016683;28;20499;-76
2021/06/05 02:13:25;;;;;;;92.20;48.42;;;20.00;99.90;;;;;;5016251;28;20089;-76
2021/06/05 02:15:58;;;;;;;97.50;49.63;;;20.00;99.90;;;;;;5019190;28;20022;-76
2021/06/05 02:18:25;;;;;;;;;;;20.00;99.90;;;;;;5020325;28;20369;-73
2021/06/05 02:21:01;;;;;;;272.02;67.03;;;20.10;99.90;;;;;;5019062;28;20358;-75
2021/06/05 02:23:37;;;;;;;292.08;74.53;;;20.10;99.90;;;;;;5021313;28;20037;-76
2021/06/05 02:26:03;;;;;;;197.88;65.70;;;20.00;99.90;;;;;;5020366;28;20048;-76
2021/06/05 02:28:29;;;;;;;129.38;61.42;;;20.00;99.90;;;;;;5022944;28;20017;-75
2021/06/05 02:30:56;;;;;;;127.88;61.38;;;20.00;99.90;;;;;;5019937;28;20425;-75
2021/06/05 02:33:23;;;;;;;153.30;62.45;;;20.10;99.90;;;;;;5018969;28;20030;-75
2021/06/05 02:35:49;;;;;;;127.30;62.63;;;20.10;99.90;;;;;;5017954;28;20026;-74
2021/06/05 02:38:17;;;;;;;157.90;65.47;;;20.20;99.90;;;;;;5024611;28;20029;-76
2021/06/05 02:40:44;;;;;;;125.38;61.30;;;20.20;99.90;;;;;;5021718;28;20042;-75
2021/06/05 02:43:17;;;;;;;123.10;63.28;;;20.20;99.90;;;;;;5025126;28;20060;-76
2021/06/05 02:45:59;;;;;;;127.47;62.88;;;20.20;99.90;;;;;;5024092;28;20029;-76
2021/06/05 02:48:40;;;;;;;137.93;62.45;;;20.20;99.90;;;;;;5018746;28;20021;-76
2021/06/05 02:51:05;;;;;;;130.07;66.70;;;20.20;99.90;;;;;;5022029;28;20033;-76
2021/06/05 02:53:31;;;;;;;133.00;62.30;;;20.30;99.90;;;;;;5015962;28;20076;-76
2021/06/05 02:55:57;;;;;;;138.18;65.35;;;20.30;99.90;;;;;;5022172;28;20483;-76
2021/06/05 02:58:22;;;;;;;139.18;63.72;;;20.20;99.90;;;;;;5019200;28;20463;-76
2021/06/05 03:00:48;;;;;;;153.05;67.47;;;20.30;99.90;;;;;;5023613;28;20033;-76
2021/06/05 03:03:17;;;;;;;132.15;67.70;;;20.30;99.90;;;;;;5023456;28;20029;-76
2021/06/05 03:05:43;;;;;;;134.30;72.28;;;20.30;99.90;;;;;;5020474;28;20038;-76
2021/06/05 03:08:12;;;;;;;131.70;67.72;;;20.30;99.90;;;;;;5018990;28;20061;-75
2021/06/05 03:10:38;;;;;;;131.73;69.40;;;20.30;99.90;;;;;;5022903;28;20034;-75
2021/06/05 03:13:07;;;;;;;147.73;70.88;;;20.30;99.90;;;;;;5020233;28;20045;-76
2021/06/05 03:15:33;;;;;;;121.45;63.78;;;20.30;99.90;;;;;;5020046;28;20060;-76
2021/06/05 03:17:58;;;;;;;119.88;67.18;;;20.30;99.90;;;;;;5025141;28;20060;-76
2021/06/05 03:20:29;;;;;;;122.32;68.13;;;20.30;99.90;;;;;;5019354;28;20120;-76
2021/06/05 03:22:56;;;;;;;127.18;70.28;;;20.30;99.90;;;;;;5021106;28;20045;-76
2021/06/05 03:25:23;;;;;;;128.95;74.88;;;20.10;99.90;;;;;;5020659;28;20029;-76
2021/06/05 03:27:49;;;;;;;131.15;69.30;;;20.20;99.90;;;;;;5017944;28;20076;-76
2021/06/05 03:30:15;;;;;;;135.18;77.28;;;20.10;99.90;;;;;;5019332;28;20034;-74
2021/06/05 03:32:41;;;;;;;157.13;77.82;;;20.20;99.90;;;;;;5013882;28;20514;-74
2021/06/05 03:35:10;;;;;;;128.20;68.50;;;20.20;99.90;;;;;;5016696;28;20030;-74
2021/06/05 03:37:37;;;;;;;146.65;78.97;;;20.20;99.90;;;;;;5015910;28;20040;-74
2021/06/05 03:40:05;;;;;;;138.43;74.15;;;20.30;99.90;;;;;;5018407;28;20448;-74
2021/06/05 03:42:30;;;;;;;154.52;84.68;;;20.30;99.90;;;;;;5013501;28;20688;-74
2021/06/05 03:44:56;;;;;;;201.32;81.47;;;20.30;99.90;;;;;;5022836;28;20021;-74
2021/06/05 03:47:23;;;;;;;179.18;83.47;;;20.30;99.90;;;;;;5017326;28;20129;-73
2021/06/05 03:49:52;;;;;;;136.38;75.82;;;20.30;99.90;;;;;;5020826;28;20033;-74
2021/06/05 03:52:23;;;;;;;148.32;79.15;;;20.40;99.90;;;;;;5016667;28;20042;-74
2021/06/05 03:54:53;;;;;;;152.68;80.70;;;20.40;99.90;;;;;;5017098;28;20028;-74
2021/06/05 03:57:21;;;;;;;160.13;88.43;;;20.40;99.90;;;;;;5020593;28;20040;-73
2021/06/05 03:59:47;;;;;;;157.35;83.00;;;20.40;99.90;;;;;;5020620;28;20072;-73
2021/06/05 04:02:13;;;;;;;161.98;87.15;;;20.40;99.90;;;;;;5021585;28;20037;-74
2021/06/05 04:04:41;;;;;;;151.57;80.63;;;20.40;99.90;;;;;;5013961;28;20018;-74
2021/06/05 04:07:09;;;;;;;169.85;84.78;;;20.40;99.90;;;;;;5019097;28;20475;-74
2021/06/05 04:09:36;;;;;;;156.73;85.32;;;20.40;99.90;;;;;;5015059;28;20030;-74
2021/06/05 04:12:02;;;;;;;166.48;89.57;;;20.30;99.90;;;;;;5019907;28;20157;-74
2021/06/05 04:14:28;;;;;;;178.18;92.80;;;20.30;99.90;;;;;;5020728;28;20026;-74
2021/06/05 04:16:54;;;;;;;182.50;93.97;;;20.30;99.90;;;;;;5019796;28;20084;-74
2021/06/05 04:19:19;;;;;;;183.27;96.95;;;20.30;99.90;;;;;;5017824;28;20038;-74
2021/06/05 04:21:45;;;;;;;206.82;104.55;;;20.20;99.90;;;;;;5021181;28;20479;-74
2021/06/05 04:24:11;;;;;;;191.13;98.38;;;20.30;99.90;;;;;;5020167;28;20041;-74
2021/06/05 04:26:36;;;;;;;221.52;103.60;;;20.30;99.90;;;;;;5025295;28;20020;-74
2021/06/05 04:29:03;;;;;;;203.70;106.55;;;20.40;99.90;;;;;;5017139;28;20022;-74
2021/06/05 04:31:28;;;;;;;223.52;110.38;;;20.30;99.90;;;;;;5018075;28;20030;-74
2021/06/05 04:33:54;;;;;;;244.93;124.60;;;20.30;99.90;;;;;;5018351;28;20386;-74
2021/06/05 04:36:19;;;;;;;254.73;128.70;;;20.30;99.90;;;;;;5016812;28;20022;-74
2021/06/05 04:38:47;;;;;;;276.13;128.52;;;20.30;99.90;;;;;;5014624;28;20042;-74
2021/06/05 04:41:14;;;;;;;266.15;128.65;;;20.30;99.90;;;;;;5016524;28;20042;-74
2021/06/05 04:43:41;;;;;;;248.77;126.80;;;20.30;99.90;;;;;;5014133;28;20033;-74
2021/06/05 04:46:08;;;;;;;312.92;135.30;;;20.20;99.90;;;;;;5021703;28;20036;-74
2021/06/05 04:48:34;;;;;;;276.45;129.32;;;20.20;99.90;;;;;;5018753;28;20033;-74
2021/06/05 04:51:00;;;;;;;316.00;140.65;;;20.20;99.90;;;;;;5017280;28;20105;-74
2021/06/05 04:53:26;;;;;;;286.60;133.23;;;20.20;99.90;;;;;;5019597;28;20559;-74
2021/06/05 04:55:52;;;;;;;316.15;137.93;;;20.20;99.90;;;;;;5019402;28;20014;-74
2021/06/05 04:58:18;;;;;;;322.73;141.23;;;20.10;99.90;;;;;;5014186;28;20022;-74
2021/06/05 05:00:49;;;;;;;298.83;140.23;;;20.10;99.90;;;;;;5018710;28;20033;-74
2021/06/05 05:03:18;;;;;;;283.48;140.82;;;20.10;99.90;;;;;;5021320;28;20050;-73
2021/06/05 05:05:44;;;;;;;289.88;138.77;;;20.00;99.90;;;;;;5015057;28;20470;-74
2021/06/05 05:08:13;;;;;;;302.90;141.98;;;20.00;99.90;;;;;;5019951;28;20026;-74
2021/06/05 05:10:44;;;;;;;280.17;131.70;;;19.90;99.90;;;;;;5014939;28;20025;-74
2021/06/05 05:13:13;;;;;;;298.90;141.65;;;20.00;99.90;;;;;;5018787;28;20025;-73
2021/06/05 05:15:40;;;;;;;304.08;140.05;;;20.00;99.90;;;;;;5014796;28;20152;-74
2021/06/05 05:18:05;;;;;;;347.60;143.75;;;20.00;99.90;;;;;;5016966;28;20025;-74
2021/06/05 05:20:35;;;;;;;308.35;139.63;;;20.10;99.90;;;;;;5014826;28;20041;-74
2021/06/05 05:23:01;;;;;;;359.20;149.80;;;20.20;99.90;;;;;;5016586;28;20026;-73
2021/06/05 05:25:28;;;;;;;274.98;141.63;;;20.20;99.90;;;;;;5025647;28;20025;-74
2021/06/05 05:27:53;;;;;;;292.30;145.13;;;20.10;99.90;;;;;;5021888;28;20046;-74
2021/06/05 05:30:25;;;;;;;253.48;132.18;;;20.20;99.90;;;;;;5022909;28;20065;-74
2021/06/05 05:32:50;;;;;;;292.60;140.45;;;20.10;99.90;;;;;;5021743;28;20487;-74
2021/06/05 05:35:17;;;;;;;295.83;142.32;;;20.20;99.90;;;;;;5025015;28;20069;-74
2021/06/05 05:37:43;;;;;;;285.88;138.98;;;20.20;99.90;;;;;;5019907;28;20030;-73
2021/06/05 05:40:11;;;;;;;263.20;135.82;;;20.20;99.90;;;;;;5023586;28;20037;-74
2021/06/05 05:42:37;;;;;;;299.65;145.27;;;20.10;99.90;;;;;;5021265;28;20029;-74
2021/06/05 05:45:04;;;;;;;284.35;144.50;;;20.20;99.90;;;;;;5022260;28;20574;-74
2021/06/05 05:47:30;;;;;;;253.13;131.02;;;20.20;99.90;;;;;;5023401;28;20059;-74
2021/06/05 05:49:55;;;;;;;243.45;131.40;;;20.10;99.90;;;;;;5024694;28;20036;-73
2021/06/05 05:52:21;;;;;;;268.00;142.70;;;19.90;99.90;;;;;;5021913;28;20029;-75
2021/06/05 05:54:47;;;;;;;236.65;130.95;;;19.90;99.90;;;;;;5032197;28;20026;-74
2021/06/05 05:57:12;;;;;;;250.05;130.20;;;19.90;99.90;;;;;;5023649;28;20475;-75
2021/06/05 05:59:38;;;;;;;249.13;131.20;;;19.90;99.90;;;;;;5023191;28;20105;-74
2021/06/05 06:02:05;;;;;;;252.32;134.52;;;19.90;99.90;;;;;;5021739;28;20046;-73
2021/06/05 06:04:30;;;;;;;285.40;144.25;;;19.90;99.90;;;;;;5023968;28;20048;-74
2021/06/05 06:06:56;;;;;;;258.63;137.60;;;20.00;99.90;;;;;;5026909;28;20017;-74
2021/06/05 06:09:22;;;;;;;266.80;134.27;;;20.00;99.90;;;;;;5020517;28;20048;-73
2021/06/05 06:11:47;;;;;;;262.13;140.45;;;20.10;99.90;;;;;;5022442;28;20076;-73
2021/06/05 06:14:15;;;;;;;264.35;136.35;;;20.10;99.90;;;;;;5028001;28;20051;-75
2021/06/05 06:16:41;;;;;;;243.80;131.35;;;20.00;99.90;;;;;;5022470;28;20029;-74
2021/06/05 06:19:07;;;;;;;234.27;131.82;;;20.00;99.90;;;;;;5021887;28;20021;-74
2021/06/05 06:21:33;;;;;;;227.73;128.07;;;19.90;99.90;;;;;;5025019;28;20395;-74
2021/06/05 06:23:59;;;;;;;235.20;132.07;;;19.80;99.90;;;;;;5023693;28;20111;-73
2021/06/05 06:26:28;;;;;;;278.63;136.13;;;19.80;99.90;;;;;;5023376;28;20079;-73
2021/06/05 06:28:56;;;;;;;289.73;139.88;;;19.80;99.90;;;;;;5019427;28;20505;-74
2021/06/05 06:31:23;;;;;;;285.00;140.70;;;19.80;99.90;;;;;;5023515;28;20048;-75
2021/06/05 06:33:49;;;;;;;282.45;133.40;;;19.90;99.90;;;;;;5023450;28;20057;-74
2021/06/05 06:36:16;;;;;;;263.23;131.05;;;19.80;99.90;;;;;;5017845;28;20109;-74
2021/06/05 06:38:45;;;;;;;246.43;125.32;;;19.90;99.90;;;;;;5018788;28;20038;-73
2021/06/05 06:41:24;;;;;;;270.27;134.07;;;19.80;99.90;;;;;;5018134;28;20111;-74
2021/06/05 06:43:50;;;;;;;248.27;126.47;;;19.80;99.90;;;;;;5023784;28;20521;-74
2021/06/05 06:46:22;;;;;;;284.23;133.27;;;19.70;99.90;;;;;;5020191;28;20030;-74
2021/06/05 06:48:52;;;;;;;303.10;142.68;;;19.70;99.90;;;;;;5021220;28;20093;-73
2021/06/05 06:51:18;;;;;;;292.27;138.50;;;19.80;99.90;;;;;;5020153;28;20028;-74
2021/06/05 06:53:44;;;;;;;280.27;136.27;;;19.80;99.90;;;;;;5015415;28;20022;-73
2021/06/05 06:56:10;;;;;;;315.05;142.02;;;19.80;99.90;;;;;;5018344;28;20057;-75
2021/06/05 06:58:37;;;;;;;374.23;146.25;;;19.80;99.90;;;;;;5019681;28;20024;-74
2021/06/05 07:01:04;;;;;;;296.13;141.55;;;19.90;99.90;;;;;;5016185;28;20042;-74
2021/06/05 07:03:29;;;;;;;288.65;135.18;;;19.90;99.90;;;;;;5013830;28;20057;-76
2021/06/05 07:05:55;;;;;;;257.95;129.70;;;19.90;99.90;;;;;;5016386;28;20083;-74
2021/06/05 07:08:24;;;;;;;322.98;138.60;;;19.80;99.90;;;;;;5013675;28;20022;-74
2021/06/05 07:10:53;;;;;;;326.38;143.80;;;19.80;99.90;;;;;;5016813;28;20030;-75
2021/06/05 07:13:19;;;;;;;264.73;129.18;;;19.90;99.90;;;;;;5020341;28;20051;-73
2021/06/05 07:15:44;;;;;;;263.65;132.65;;;19.90;99.90;;;;;;5020048;28;20029;-77
2021/06/05 07:18:12;;;;;;;250.43;127.13;;;19.90;99.90;;;;;;5013794;28;20032;-74
2021/06/05 07:20:39;;;;;;;219.73;120.70;;;19.90;99.90;;;;;;5017089;28;20034;-73
2021/06/05 07:23:05;;;;;;;220.82;115.68;;;19.90;99.90;;;;;;5018069;28;20470;-74
2021/06/05 07:25:31;;;;;;;209.77;113.22;;;19.90;99.90;;;;;;5019956;28;20057;-74
2021/06/05 07:27:57;;;;;;;197.23;110.38;;;19.90;99.90;;;;;;5019389;28;20049;-75
2021/06/05 07:30:24;;;;;;;163.32;100.20;;;19.90;99.90;;;;;;5015776;28;20030;-74
2021/06/05 07:32:51;;;;;;;158.20;98.82;;;19.90;99.90;;;;;;5018319;28;21062;-74
2021/06/05 07:35:17;;;;;;;196.90;105.07;;;19.90;99.90;;;;;;5017485;28;20533;-74
2021/06/05 07:37:43;;;;;;;177.48;107.78;;;19.90;99.90;;;;;;5017599;28;20472;-74
2021/06/05 07:40:11;;;;;;;174.50;104.47;;;20.00;99.90;;;;;;5016823;28;20117;-74
2021/06/05 07:42:37;;;;;;;177.10;104.85;;;19.80;99.90;;;;;;5015961;28;20041;-73
2021/06/05 07:45:08;;;;;;;169.10;107.13;;;19.80;99.90;;;;;;5018218;28;20024;-74
2021/06/05 07:47:34;;;;;;;173.63;106.10;;;19.90;99.90;;;;;;5016916;28;20030;-75
2021/06/05 07:49:59;;;;;;;163.82;98.10;;;19.90;99.90;;;;;;5015656;28;20120;-73
2021/06/05 07:52:25;;;;;;;170.82;100.63;;;19.90;99.90;;;;;;5015671;28;20509;-74
2021/06/05 07:54:53;;;;;;;162.93;96.90;;;19.90;99.90;;;;;;5021728;28;20068;-74
2021/06/05 07:57:23;;;;;;;153.88;97.72;;;19.90;99.90;;;;;;5018749;28;20121;-75
2021/06/05 07:59:48;;;;;;;176.30;104.15;;;19.90;99.90;;;;;;5015568;28;22039;-74
2021/06/05 08:02:14;;;;;;;157.32;99.22;;;19.80;99.90;;;;;;5016723;28;20525;-74
2021/06/05 08:04:40;;;;;;;164.00;102.28;;;19.80;99.90;;;;;;5017263;28;20045;-74
2021/06/05 08:07:06;;;;;;;147.95;98.38;;;19.90;99.90;;;;;;5024509;28;20181;-73
2021/06/05 08:09:31;;;;;;;150.85;96.28;;;19.80;99.90;;;;;;5018066;28;20041;-73
2021/06/05 08:11:58;;;;;;;154.50;98.55;;;19.90;99.90;;;;;;5017857;28;20030;-73
2021/06/05 08:14:24;;;;;;;162.98;98.38;;;19.90;99.90;;;;;;5015684;28;20018;-73
2021/06/05 08:16:50;;;;;;;144.20;95.57;;;19.90;99.90;;;;;;5018735;28;20033;-78
2021/06/05 08:19:15;;;;;;;170.18;100.63;;;19.80;99.90;;;;;;5021216;28;20117;-74
2021/06/05 08:21:43;;;;;;;151.73;93.53;;;19.90;99.90;;;;;;5015284;28;20124;-74
2021/06/05 08:24:10;;;;;;;156.75;97.97;;;19.90;99.90;;;;;;5018547;28;20021;-74
2021/06/05 08:26:37;;;;;;;165.23;99.32;;;20.00;99.90;;;;;;5017092;28;20148;-74
2021/06/05 08:29:03;;;;;;;139.30;88.78;;;20.00;99.90;;;;;;5019544;28;20112;-73
2021/06/05 08:31:28;;;;;;;145.55;94.85;;;19.90;99.90;;;;;;5016356;28;20049;-75
2021/06/05 08:33:54;;;;;;;220.73;114.00;;;19.90;99.90;;;;;;5017573;28;20363;-75
2021/06/05 08:36:23;;;;;;;169.30;107.88;;;20.00;99.90;;;;;;5016372;28;20459;-75
2021/06/05 08:38:49;;;;;;;186.73;108.85;;;20.00;99.90;;;;;;5015226;28;20116;-75
2021/06/05 08:41:24;;;;;;;191.82;108.35;;;20.10;99.90;;;;;;5016920;28;20550;-75
2021/06/05 08:44:12;;;;;;;195.48;115.05;;;20.10;99.90;;;;;;5020462;28;20034;-75
2021/06/05 08:46:49;;;;;;;161.25;99.82;;;20.00;99.90;;;;;;5018738;28;20026;-75
2021/06/05 08:49:23;;;;;;;183.32;105.75;;;20.00;99.90;;;;;;5015932;28;20018;-75
2021/06/05 08:52:09;;;;;;;142.38;91.57;;;20.00;99.90;;;;;;5018690;28;20096;-75
2021/06/05 08:54:49;;;;;;;175.63;102.47;;;20.00;99.90;;;;;;5021219;28;20030;-75
2021/06/05 08:57:27;;;;;;;158.57;97.88;;;20.00;99.90;;;;;;5014986;28;20128;-75
2021/06/05 08:59:56;;;;;;;148.30;93.95;;;20.00;99.90;;;;;;5022209;28;20060;-76
2021/06/05 09:02:26;;;;;;;125.35;86.13;;;20.00;99.90;;;;;;5014610;28;20025;-75
2021/06/05 09:04:53;;;;;;;123.32;86.30;;;20.00;99.90;;;;;;5021198;28;20406;-75
2021/06/05 09:07:20;;;;;;;136.50;94.25;;;20.00;99.90;;;;;;5013319;28;20022;-75
2021/06/05 09:09:49;;;;;;;113.70;81.43;;;20.00;99.90;;;;;;5018397;28;20022;-76
2021/06/05 09:12:15;;;;;;;122.80;87.10;;;20.10;99.90;;;;;;5016777;28;20077;-74
2021/06/05 09:14:43;;;;;;;132.30;90.93;;;19.90;99.90;;;;;;5021501;28;20029;-76
2021/06/05 09:17:30;;;;;;;137.52;92.47;;;19.90;99.90;;;;;;5020542;28;20048;-75
2021/06/05 09:20:05;;;;;;;132.02;89.43;;;20.00;99.90;;;;;;5015829;28;20034;-75
2021/06/05 09:22:37;;;;;;;128.57;82.75;;;20.00;99.90;;;;;;5014755;28;20026;-75
2021/06/05 09:25:21;;;;;;;126.13;85.22;;;19.90;99.90;;;;;;5016984;28;20378;-75
2021/06/05 09:27:47;;;;;;;164.82;96.38;;;19.90;99.90;;;;;;5026338;28;20475;-75
2021/06/05 09:30:34;;;;;;;141.65;91.35;;;19.80;99.90;;;;;;5017841;28;20044;-74
2021/06/05 09:33:06;;;;;;;122.15;87.03;;;19.90;99.90;;;;;;5016928;28;20095;-75
2021/06/05 09:35:37;;;;;;;139.68;99.20;;;19.90;99.90;;;;;;5017409;28;20466;-74
2021/06/05 09:38:30;;;;;;;162.27;103.72;;;19.90;99.90;;;;;;5015913;28;20068;-75
2021/06/05 09:41:02;;;;;;;;;;;19.90;99.90;;;;;;5021220;28;20405;-75
2021/06/05 09:43:28;;;;;;;151.13;95.30;;;20.00;99.90;;;;;;5023154;28;19914;-75
2021/06/05 09:46:21;;;;;;;143.70;93.47;;;20.00;99.90;;;;;;5015075;28;20026;-75
2021/06/05 09:48:49;;;;;;;170.70;103.38;;;20.00;99.90;;;;;;5019928;28;20030;-75
2021/06/05 09:51:37;;;;;;;170.65;108.03;;;20.00;99.90;;;;;;5019517;28;20021;-75
2021/06/05 09:54:02;;;;;;;158.77;99.35;;;20.00;99.90;;;;;;5021516;28;20061;-74
2021/06/05 09:56:33;;;;;;;154.80;95.45;;;20.00;99.90;;;;;;5018235;28;20531;-75
2021/06/05 09:59:26;;;;;;;205.90;111.20;;;20.00;99.90;;;;;;5014740;28;20034;-75
2021/06/05 10:02:05;;;;;;;133.18;85.90;;;20.10;99.90;;;;;;5013036;28;20045;-75
2021/06/05 10:04:34;;;;;;;122.15;83.22;;;20.00;99.90;;;;;;5014977;28;20492;-75
2021/06/05 10:07:01;;;;;;;109.00;72.53;;;20.00;99.90;;;;;;5021991;28;20025;-80
2021/06/05 10:09:30;;;;;;;121.53;78.47;;;19.90;99.90;;;;;;5014545;28;20440;-75
2021/06/05 10:12:08;;;;;;;121.50;82.00;;;19.90;99.90;;;;;;5018179;28;20053;-75
2021/06/05 10:14:52;;;;;;;111.20;74.78;;;19.90;99.90;;;;;;5019874;28;20113;-75
2021/06/05 10:17:30;;;;;;;131.05;85.15;;;19.80;99.90;;;;;;5026174;28;20045;-75
2021/06/05 10:20:20;;;;;;;118.03;78.25;;;19.80;99.90;;;;;;5024198;28;20048;-75
2021/06/05 10:22:48;;;;;;;128.77;81.25;;;19.80;99.90;;;;;;5020157;28;20073;-75
2021/06/05 10:25:37;;;;;;;125.85;77.30;;;19.90;99.90;;;;;;5019385;28;20021;-75
2021/06/05 10:28:10;;;;;;;105.30;69.82;;;19.80;99.90;;;;;;5017026;28;20025;-75
2021/06/05 10:30:59;;;;;;;119.93;74.88;;;19.90;99.90;;;;;;5020315;28;20080;-75
2021/06/05 10:33:27;;;;;;;97.65;63.42;;;19.90;99.90;;;;;;5024714;28;20093;-75
2021/06/05 10:35:56;;;;;;;132.18;77.30;;;19.90;99.90;;;;;;5017329;28;20025;-74
2021/06/05 10:38:42;;;;;;;122.28;74.22;;;20.00;99.90;;;;;;5024157;28;20486;-75
2021/06/05 10:41:12;;;;;;;124.03;76.43;;;19.90;99.90;;;;;;5021107;28;20167;-75
2021/06/05 10:43:39;;;;;;;119.25;73.18;;;19.90;99.90;;;;;;5018343;28;20036;-75
2021/06/05 10:46:32;;;;;;;120.63;73.45;;;19.90;99.90;;;;;;5017377;28;20017;-74
2021/06/05 10:49:10;;;;;;;99.03;65.47;;;19.90;99.90;;;;;;5017070;28;20071;-75
2021/06/05 10:51:41;;;;;;;126.60;77.90;;;20.00;99.90;;;;;;5021317;28;20034;-75
2021/06/05 10:54:14;;;;;;;99.13;63.72;;;20.00;99.90;;;;;;5022918;28;20060;-74
2021/06/05 10:56:57;;;;;;;117.63;68.45;;;19.80;99.90;;;;;;5019685;28;20017;-75
2021/06/05 11:00:02;;;;;;;126.93;71.43;;;19.80;99.90;;;;;;5019955;28;20083;-74
2021/06/05 11:02:46;;;;;;;116.50;67.57;;;20.00;99.90;;;;;;5016293;28;20037;-75
2021/06/05 11:05:27;;;;;;;115.13;66.32;;;20.00;99.90;;;;;;5017858;28;20057;-75
2021/06/05 11:08:07;;;;;;;126.32;72.97;;;19.90;99.90;;;;;;5016737;28;20026;-75
2021/06/05 11:10:51;;;;;;;98.40;61.47;;;19.90;99.90;;;;;;5018160;28;20044;-75
2021/06/05 11:13:47;;;;;;;108.75;63.85;;;19.90;99.90;;;;;;5020075;28;20026;-76
2021/06/05 11:16:13;;;;;;;108.45;67.53;;;19.80;99.90;;;;;;5003856;28;20044;-75
2021/06/05 11:18:46;;;;;;;123.90;70.45;;;19.80;99.90;;;;;;5024048;28;20390;-75
2021/06/05 11:21:24;;;;;;;102.10;64.97;;;19.80;99.90;;;;;;5018044;28;20040;-75
2021/06/05 11:23:56;;;;;;;107.05;68.03;;;19.80;99.90;;;;;;5025462;28;20095;-75
2021/06/05 11:26:34;;;;;;;87.63;60.53;;;19.80;99.90;;;;;;5004265;28;20034;-75
2021/06/05 11:29:01;;;;;;;76.85;57.47;;;19.60;99.90;;;;;;5022671;28;20421;-74
2021/06/05 11:31:43;;;;;;;89.55;63.08;;;19.70;99.90;;;;;;5013691;28;20048;-75
2021/06/05 11:34:30;;;;;;;88.87;64.33;;;19.70;99.90;;;;;;5020505;28;20056;-75
2021/06/05 11:37:12;;;;;;;92.97;68.45;;;19.80;99.90;;;;;;5019198;28;20037;-75
2021/06/05 11:39:50;;;;;;;83.07;62.45;;;19.70;99.90;;;;;;5021531;28;20037;-75
2021/06/05 11:42:21;;;;;;;94.55;65.47;;;19.60;99.90;;;;;;5015928;28;20037;-75
2021/06/05 11:44:49;;;;;;;96.28;69.70;;;19.70;99.90;;;;;;5018784;28;20037;-75
2021/06/05 11:47:18;;;;;;;95.38;71.93;;;19.80;99.90;;;;;;5019070;28;20026;-75
2021/06/05 11:49:52;;;;;;;82.75;63.13;;;19.80;99.90;;;;;;5014672;28;20032;-74
2021/06/05 11:52:30;;;;;;;88.03;61.70;;;19.80;99.90;;;;;;5017835;28;20021;-74
2021/06/05 11:55:18;;;;;;;105.57;69.88;;;19.80;99.90;;;;;;5013204;28;20375;-74
2021/06/05 11:58:04;;;;;;;100.15;66.80;;;19.90;99.90;;;;;;5007583;28;20042;-73
2021/06/05 12:00:36;;;;;;;102.25;70.65;;;19.90;99.90;;;;;;5011900;28;20038;-74
2021/06/05 12:03:09;;;;;;;95.50;63.55;;;19.90;99.90;;;;;;5017742;28;20044;-74
2021/06/05 12:05:42;;;;;;;93.22;63.80;;;19.90;99.90;;;;;;5013886;28;20030;-73
2021/06/05 12:08:29;;;;;;;93.10;63.60;;;19.80;99.90;;;;;;5020044;28;20117;-73
2021/06/05 12:10:56;;;;;;;101.47;71.10;;;19.80;99.90;;;;;;5014701;28;20094;-73
2021/06/05 12:13:35;;;;;;;102.13;73.93;;;19.70;99.90;;;;;;5018836;28;20041;-74
2021/06/05 12:16:19;;;;;;;103.93;72.40;;;19.50;99.90;;;;;;5017199;28;20054;-73
2021/06/05 12:18:47;;;;;;;106.30;71.82;;;19.60;99.90;;;;;;5017389;28;20116;-74
2021/06/05 12:21:35;;;;;;;111.28;77.65;;;19.60;99.90;;;;;;5013188;28;20145;-74
2021/06/05 12:24:16;;;;;;;114.22;79.50;;;19.60;99.90;;;;;;5016008;28;20054;-73
2021/06/05 12:26:49;;;;;;;117.88;85.15;;;19.60;99.90;;;;;;5013719;28;20021;-73
2021/06/05 12:29:26;;;;;;;;;;;19.60;99.90;;;;;;5018547;28;20100;-71
2021/06/05 12:31:53;;;;;;;110.45;74.88;;;19.70;99.90;;;;;;5015341;28;20377;-73
2021/06/05 12:34:30;;;;;;;124.00;83.95;;;19.70;99.90;;;;;;5020754;28;20109;-74
2021/06/05 12:37:15;;;;;;;118.00;83.85;;;19.70;99.90;;;;;;5015646;28;20025;-73